sensor_id;sensor_type;location;lat;lon;timestamp;temperature;humidity
73277;DHT22;61501;43.316;5.372;2023-07-13T00:28:16;26.00;99.90
73277;DHT22;61501;43.316;5.372;2023-07-13T00:31:34;26.00;99.90
73277;DHT22;61501;43.316;5.372;2023-07-13T00:54:20;25.80;99.90
73277;DHT22;61501;43.316;5.372;2023-07-13T00:56:47;25.70;99.90
73277;DHT22;61501;43.316;5.372;2023-07-13T00:59:15;25.70;99.90
73277;DHT22;61501;43.316;5.372;2023-07-13T01:01:42;25.60;99.90
73277;DHT22;61501;43.316;5.372;2023-07-13T01:04:08;25.60;99.90
73277;DHT22;61501;43.316;5.372;2023-07-13T01:06:37;25.70;99.90
73277;DHT22;61501;43.316;5.372;2023-07-13T01:09:05;25.70;99.90
73277;DHT22;61501;43.316;5.372;2023-07-13T01:11:32;25.70;99.90
73277;DHT22;61501;43.316;5.372;2023-07-13T01:13:58;25.70;99.90
73277;DHT22;61501;43.316;5.372;2023-07-13T01:16:28;25.60;99.90
73277;DHT22;61501;43.316;5.372;2023-07-13T01:18:55;25.60;99.90
73277;DHT22;61501;43.316;5.372;2023-07-13T01:21:24;25.60;99.90
73277;DHT22;61501;43.316;5.372;2023-07-13T01:23:49;25.50;99.90
73277;DHT22;61501;43.316;5.372;2023-07-13T01:26:15;25.50;99.90
73277;DHT22;61501;43.316;5.372;2023-07-13T01:28:41;25.40;99.90
73277;DHT22;61501;43.316;5.372;2023-07-13T01:31:07;25.30;99.90
73277;DHT22;61501;43.316;5.372;2023-07-13T01:33:34;25.20;99.90
73277;DHT22;61501;43.316;5.372;2023-07-13T01:36:00;25.10;99.90
73277;DHT22;61501;43.316;5.372;2023-07-13T01:38:27;25.10;99.90
73277;DHT22;61501;43.316;5.372;2023-07-13T01:40:53;25.10;99.90
73277;DHT22;61501;43.316;5.372;2023-07-13T01:43:19;25.10;99.90
73277;DHT22;61501;43.316;5.372;2023-07-13T01:45:45;25.00;99.90
73277;DHT22;61501;43.316;5.372;2023-07-13T01:48:11;25.00;99.90
73277;DHT22;61501;43.316;5.372;2023-07-13T01:50:37;25.00;99.90
73277;DHT22;61501;43.316;5.372;2023-07-13T01:53:03;25.00;99.90
73277;DHT22;61501;43.316;5.372;2023-07-13T01:55:30;25.00;99.90
73277;DHT22;61501;43.316;5.372;2023-07-13T01:57:56;25.00;99.90
73277;DHT22;61501;43.316;5.372;2023-07-13T02:00:22;25.00;99.90
73277;DHT22;61501;43.316;5.372;2023-07-13T02:02:48;25.00;99.90
73277;DHT22;61501;43.316;5.372;2023-07-13T02:05:14;25.00;99.90
73277;DHT22;61501;43.316;5.372;2023-07-13T02:07:40;25.00;99.90
73277;DHT22;61501;43.316;5.372;2023-07-13T02:10:07;25.00;99.90
73277;DHT22;61501;43.316;5.372;2023-07-13T02:12:33;24.90;99.90
73277;DHT22;61501;43.316;5.372;2023-07-13T02:14:59;24.90;99.90
73277;DHT22;61501;43.316;5.372;2023-07-13T02:17:26;24.80;99.90
73277;DHT22;61501;43.316;5.372;2023-07-13T02:19:52;24.90;99.90
73277;DHT22;61501;43.316;5.372;2023-07-13T02:22:18;24.90;99.90
73277;DHT22;61501;43.316;5.372;2023-07-13T02:24:44;24.80;99.90
73277;DHT22;61501;43.316;5.372;2023-07-13T02:27:09;24.80;99.90
73277;DHT22;61501;43.316;5.372;2023-07-13T02:29:35;24.80;99.90
73277;DHT22;61501;43.316;5.372;2023-07-13T02:32:01;24.80;99.90
73277;DHT22;61501;43.316;5.372;2023-07-13T02:34:26;24.80;99.90
73277;DHT22;61501;43.316;5.372;2023-07-13T02:36:52;24.80;99.90
73277;DHT22;61501;43.316;5.372;2023-07-13T02:39:18;24.80;99.90
73277;DHT22;61501;43.316;5.372;2023-07-13T02:41:43;24.70;99.90
73277;DHT22;61501;43.316;5.372;2023-07-13T02:44:09;24.70;99.90
73277;DHT22;61501;43.316;5.372;2023-07-13T02:46:36;24.70;99.90
73277;DHT22;61501;43.316;5.372;2023-07-13T02:49:03;24.70;99.90
73277;DHT22;61501;43.316;5.372;2023-07-13T02:51:29;24.70;99.90
73277;DHT22;61501;43.316;5.372;2023-07-13T02:53:55;24.70;99.90
73277;DHT22;61501;43.316;5.372;2023-07-13T02:56:26;24.70;99.90
73277;DHT22;61501;43.316;5.372;2023-07-13T02:58:52;24.60;99.90
73277;DHT22;61501;43.316;5.372;2023-07-13T03:01:19;24.70;99.90
73277;DHT22;61501;43.316;5.372;2023-07-13T03:03:45;24.70;99.90
73277;DHT22;61501;43.316;5.372;2023-07-13T03:06:12;24.70;99.90
73277;DHT22;61501;43.316;5.372;2023-07-13T03:08:38;24.70;99.90
73277;DHT22;61501;43.316;5.372;2023-07-13T03:11:07;24.70;99.90
73277;DHT22;61501;43.316;5.372;2023-07-13T03:13:34;24.70;99.90
73277;DHT22;61501;43.316;5.372;2023-07-13T03:16:00;24.60;99.90
73277;DHT22;61501;43.316;5.372;2023-07-13T03:18:27;24.60;99.90
73277;DHT22;61501;43.316;5.372;2023-07-13T03:20:53;24.70;99.90
73277;DHT22;61501;43.316;5.372;2023-07-13T03:23:20;24.70;99.90
73277;DHT22;61501;43.316;5.372;2023-07-13T03:25:46;24.60;99.90
73277;DHT22;61501;43.316;5.372;2023-07-13T03:28:12;24.60;99.90
73277;DHT22;61501;43.316;5.372;2023-07-13T03:30:38;24.60;99.90
73277;DHT22;61501;43.316;5.372;2023-07-13T03:33:05;24.60;99.90
73277;DHT22;61501;43.316;5.372;2023-07-13T03:35:30;24.60;99.90
73277;DHT22;61501;43.316;5.372;2023-07-13T03:37:58;24.40;99.90
73277;DHT22;61501;43.316;5.372;2023-07-13T03:40:25;24.40;99.90
73277;DHT22;61501;43.316;5.372;2023-07-13T03:42:51;24.40;99.90
73277;DHT22;61501;43.316;5.372;2023-07-13T03:45:17;24.40;99.90
73277;DHT22;61501;43.316;5.372;2023-07-13T03:47:43;24.40;99.90
73277;DHT22;61501;43.316;5.372;2023-07-13T03:50:09;24.40;99.90
73277;DHT22;61501;43.316;5.372;2023-07-13T03:52:35;24.40;99.90
73277;DHT22;61501;43.316;5.372;2023-07-13T03:55:00;24.40;99.90
73277;DHT22;61501;43.316;5.372;2023-07-13T03:57:26;24.40;99.90
73277;DHT22;61501;43.316;5.372;2023-07-13T03:59:52;24.40;99.90
73277;DHT22;61501;43.316;5.372;2023-07-13T04:02:17;24.30;99.90
73277;DHT22;61501;43.316;5.372;2023-07-13T04:04:43;24.40;99.90
73277;DHT22;61501;43.316;5.372;2023-07-13T04:07:09;24.30;99.90
73277;DHT22;61501;43.316;5.372;2023-07-13T04:09:35;24.40;99.90
73277;DHT22;61501;43.316;5.372;2023-07-13T04:12:01;24.30;99.90
73277;DHT22;61501;43.316;5.372;2023-07-13T04:14:27;24.30;99.90
73277;DHT22;61501;43.316;5.372;2023-07-13T04:16:53;24.30;99.90
73277;DHT22;61501;43.316;5.372;2023-07-13T04:19:20;24.30;99.90
73277;DHT22;61501;43.316;5.372;2023-07-13T04:21:46;24.30;99.90
73277;DHT22;61501;43.316;5.372;2023-07-13T04:24:11;24.40;99.90
73277;DHT22;61501;43.316;5.372;2023-07-13T04:26:38;24.40;99.90
73277;DHT22;61501;43.316;5.372;2023-07-13T04:29:05;24.30;99.90
73277;DHT22;61501;43.316;5.372;2023-07-13T04:31:31;24.30;99.90
73277;DHT22;61501;43.316;5.372;2023-07-13T04:33:57;24.20;99.90
73277;DHT22;61501;43.316;5.372;2023-07-13T04:36:23;24.20;99.90
73277;DHT22;61501;43.316;5.372;2023-07-13T04:38:52;24.20;99.90
73277;DHT22;61501;43.316;5.372;2023-07-13T04:41:19;24.20;99.90
73277;DHT22;61501;43.316;5.372;2023-07-13T04:43:46;24.20;99.90
73277;DHT22;61501;43.316;5.372;2023-07-13T04:46:14;24.20;99.90
73277;DHT22;61501;43.316;5.372;2023-07-13T04:48:41;24.30;99.90
73277;DHT22;61501;43.316;5.372;2023-07-13T04:51:06;24.20;99.90
73277;DHT22;61501;43.316;5.372;2023-07-13T04:53:32;24.30;99.90
73277;DHT22;61501;43.316;5.372;2023-07-13T04:56:00;24.30;99.90
73277;DHT22;61501;43.316;5.372;2023-07-13T04:58:26;24.30;99.90
73277;DHT22;61501;43.316;5.372;2023-07-13T05:00:53;24.30;99.90
73277;DHT22;61501;43.316;5.372;2023-07-13T05:03:18;24.30;99.90
73277;DHT22;61501;43.316;5.372;2023-07-13T05:05:55;24.30;99.90
73277;DHT22;61501;43.316;5.372;2023-07-13T05:08:21;24.50;99.90
73277;DHT22;61501;43.316;5.372;2023-07-13T05:10:47;24.70;99.90
73277;DHT22;61501;43.316;5.372;2023-07-13T05:13:12;24.60;99.90
73277;DHT22;61501;43.316;5.372;2023-07-13T05:15:38;24.60;99.90
73277;DHT22;61501;43.316;5.372;2023-07-13T05:18:04;24.40;99.90
73277;DHT22;61501;43.316;5.372;2023-07-13T05:20:29;24.40;99.90
73277;DHT22;61501;43.316;5.372;2023-07-13T05:22:55;24.40;99.90
73277;DHT22;61501;43.316;5.372;2023-07-13T05:25:21;24.30;99.90
73277;DHT22;61501;43.316;5.372;2023-07-13T05:27:47;24.40;99.90
73277;DHT22;61501;43.316;5.372;2023-07-13T05:30:13;24.40;99.90
73277;DHT22;61501;43.316;5.372;2023-07-13T05:32:39;24.40;99.90
73277;DHT22;61501;43.316;5.372;2023-07-13T05:35:05;24.30;99.90
73277;DHT22;61501;43.316;5.372;2023-07-13T05:37:34;24.40;99.90
73277;DHT22;61501;43.316;5.372;2023-07-13T05:40:00;24.50;99.90
73277;DHT22;61501;43.316;5.372;2023-07-13T05:42:25;24.50;99.90
73277;DHT22;61501;43.316;5.372;2023-07-13T05:44:51;24.60;99.90
73277;DHT22;61501;43.316;5.372;2023-07-13T05:47:17;24.50;99.90
73277;DHT22;61501;43.316;5.372;2023-07-13T05:49:42;24.50;99.90
73277;DHT22;61501;43.316;5.372;2023-07-13T05:52:08;24.60;99.90
73277;DHT22;61501;43.316;5.372;2023-07-13T05:54:33;24.60;99.90
73277;DHT22;61501;43.316;5.372;2023-07-13T05:56:59;24.50;99.90
73277;DHT22;61501;43.316;5.372;2023-07-13T05:59:25;24.50;99.90
73277;DHT22;61501;43.316;5.372;2023-07-13T06:01:51;24.50;99.90
73277;DHT22;61501;43.316;5.372;2023-07-13T06:04:18;24.60;99.90
73277;DHT22;61501;43.316;5.372;2023-07-13T06:06:44;24.60;99.90
73277;DHT22;61501;43.316;5.372;2023-07-13T06:09:09;24.70;99.90
73277;DHT22;61501;43.316;5.372;2023-07-13T06:11:37;24.60;99.90
73277;DHT22;61501;43.316;5.372;2023-07-13T06:14:03;24.60;99.90
73277;DHT22;61501;43.316;5.372;2023-07-13T06:16:29;24.50;99.90
73277;DHT22;61501;43.316;5.372;2023-07-13T06:18:55;24.60;99.90
73277;DHT22;61501;43.316;5.372;2023-07-13T06:21:22;24.70;99.90
73277;DHT22;61501;43.316;5.372;2023-07-13T06:23:49;24.70;99.90
73277;DHT22;61501;43.316;5.372;2023-07-13T06:26:15;24.60;99.90
73277;DHT22;61501;43.316;5.372;2023-07-13T06:28:41;24.60;99.90
73277;DHT22;61501;43.316;5.372;2023-07-13T06:31:09;24.60;99.90
73277;DHT22;61501;43.316;5.372;2023-07-13T06:33:35;24.70;99.90
73277;DHT22;61501;43.316;5.372;2023-07-13T06:36:03;24.70;99.90
73277;DHT22;61501;43.316;5.372;2023-07-13T06:38:29;24.90;99.90
73277;DHT22;61501;43.316;5.372;2023-07-13T06:40:55;25.00;99.90
73277;DHT22;61501;43.316;5.372;2023-07-13T06:43:20;24.90;99.90
73277;DHT22;61501;43.316;5.372;2023-07-13T06:45:48;24.90;99.90
73277;DHT22;61501;43.316;5.372;2023-07-13T06:48:19;25.10;99.90
73277;DHT22;61501;43.316;5.372;2023-07-13T06:50:45;25.10;99.90
73277;DHT22;61501;43.316;5.372;2023-07-13T06:53:12;25.20;99.90
73277;DHT22;61501;43.316;5.372;2023-07-13T06:55:38;25.20;99.90
73277;DHT22;61501;43.316;5.372;2023-07-13T06:58:04;25.20;99.90
73277;DHT22;61501;43.316;5.372;2023-07-13T07:00:30;25.40;99.90
73277;DHT22;61501;43.316;5.372;2023-07-13T07:02:55;25.40;99.90
73277;DHT22;61501;43.316;5.372;2023-07-13T07:05:21;25.30;99.90
73277;DHT22;61501;43.316;5.372;2023-07-13T07:07:51;25.40;99.90
73277;DHT22;61501;43.316;5.372;2023-07-13T07:10:18;25.30;99.90
73277;DHT22;61501;43.316;5.372;2023-07-13T07:12:43;25.40;99.90
73277;DHT22;61501;43.316;5.372;2023-07-13T07:15:10;25.30;99.90
73277;DHT22;61501;43.316;5.372;2023-07-13T07:17:36;25.20;99.90
73277;DHT22;61501;43.316;5.372;2023-07-13T07:20:02;25.30;99.90
73277;DHT22;61501;43.316;5.372;2023-07-13T07:22:29;25.40;99.90
73277;DHT22;61501;43.316;5.372;2023-07-13T07:24:56;25.50;99.90
73277;DHT22;61501;43.316;5.372;2023-07-13T07:27:22;25.40;99.90
73277;DHT22;61501;43.316;5.372;2023-07-13T07:29:48;25.50;99.90
73277;DHT22;61501;43.316;5.372;2023-07-13T07:32:14;25.60;99.90
73277;DHT22;61501;43.316;5.372;2023-07-13T07:34:39;25.60;99.90
73277;DHT22;61501;43.316;5.372;2023-07-13T07:37:13;25.70;99.90
73277;DHT22;61501;43.316;5.372;2023-07-13T07:42:20;25.80;99.90
73277;DHT22;61501;43.316;5.372;2023-07-13T07:44:45;25.70;99.90
73277;DHT22;61501;43.316;5.372;2023-07-13T07:47:11;25.70;99.90
73277;DHT22;61501;43.316;5.372;2023-07-13T07:49:37;25.80;99.90
73277;DHT22;61501;43.316;5.372;2023-07-13T07:52:03;25.80;99.90
73277;DHT22;61501;43.316;5.372;2023-07-13T07:54:29;25.80;99.90
73277;DHT22;61501;43.316;5.372;2023-07-13T07:56:55;25.80;99.90
73277;DHT22;61501;43.316;5.372;2023-07-13T07:59:21;25.80;99.90
73277;DHT22;61501;43.316;5.372;2023-07-13T08:01:46;25.90;99.90
73277;DHT22;61501;43.316;5.372;2023-07-13T08:04:15;26.00;99.90
73277;DHT22;61501;43.316;5.372;2023-07-13T08:06:41;26.20;99.90
73277;DHT22;61501;43.316;5.372;2023-07-13T08:09:07;26.20;99.90
73277;DHT22;61501;43.316;5.372;2023-07-13T08:11:33;26.30;99.70
73277;DHT22;61501;43.316;5.372;2023-07-13T08:13:59;26.10;99.90
73277;DHT22;61501;43.316;5.372;2023-07-13T08:16:25;26.20;99.00
73277;DHT22;61501;43.316;5.372;2023-07-13T08:18:51;26.20;98.80
73277;DHT22;61501;43.316;5.372;2023-07-13T08:21:17;26.20;98.40
73277;DHT22;61501;43.316;5.372;2023-07-13T08:23:45;26.20;97.80
73277;DHT22;61501;43.316;5.372;2023-07-13T08:26:11;26.20;97.40
73277;DHT22;61501;43.316;5.372;2023-07-13T08:28:37;26.20;97.20
73277;DHT22;61501;43.316;5.372;2023-07-13T08:31:06;26.30;97.00
73277;DHT22;61501;43.316;5.372;2023-07-13T08:33:35;26.40;97.20
73277;DHT22;61501;43.316;5.372;2023-07-13T08:36:01;26.50;96.20
73277;DHT22;61501;43.316;5.372;2023-07-13T08:38:27;26.60;96.70
73277;DHT22;61501;43.316;5.372;2023-07-13T08:40:55;26.60;96.10
73277;DHT22;61501;43.316;5.372;2023-07-13T08:43:33;26.70;95.80
73277;DHT22;61501;43.316;5.372;2023-07-13T08:46:17;26.60;95.00
73277;DHT22;61501;43.316;5.372;2023-07-13T08:49:16;26.70;95.50
73277;DHT22;61501;43.316;5.372;2023-07-13T08:54:32;26.90;94.10
73277;DHT22;61501;43.316;5.372;2023-07-13T08:57:12;26.80;93.70
73277;DHT22;61501;43.316;5.372;2023-07-13T08:59:39;26.80;92.80
73277;DHT22;61501;43.316;5.372;2023-07-13T09:05:01;26.80;93.90
73277;DHT22;61501;43.316;5.372;2023-07-13T09:10:17;26.90;94.30
73277;DHT22;61501;43.316;5.372;2023-07-13T09:15:24;27.20;91.60
73277;DHT22;61501;43.316;5.372;2023-07-13T09:17:52;27.30;90.10
73277;DHT22;61501;43.316;5.372;2023-07-13T09:20:34;27.40;90.20
73277;DHT22;61501;43.316;5.372;2023-07-13T09:23:04;27.40;89.50
73277;DHT22;61501;43.316;5.372;2023-07-13T09:25:36;27.50;85.80
73277;DHT22;61501;43.316;5.372;2023-07-13T09:33:20;27.60;85.00
73277;DHT22;61501;43.316;5.372;2023-07-13T09:35:46;27.70;85.00
73277;DHT22;61501;43.316;5.372;2023-07-13T09:38:14;27.80;84.20
73277;DHT22;61501;43.316;5.372;2023-07-13T09:43:20;27.60;85.20
73277;DHT22;61501;43.316;5.372;2023-07-13T09:45:47;27.80;83.70
73277;DHT22;61501;43.316;5.372;2023-07-13T09:48:15;27.90;82.50
73277;DHT22;61501;43.316;5.372;2023-07-13T09:50:42;27.90;79.30
73277;DHT22;61501;43.316;5.372;2023-07-13T09:53:21;27.90;79.80
73277;DHT22;61501;43.316;5.372;2023-07-13T09:55:49;28.00;76.60
73277;DHT22;61501;43.316;5.372;2023-07-13T09:58:20;28.00;74.40
73277;DHT22;61501;43.316;5.372;2023-07-13T10:01:02;28.10;72.30
73277;DHT22;61501;43.316;5.372;2023-07-13T10:03:31;28.00;71.90
73277;DHT22;61501;43.316;5.372;2023-07-13T10:06:17;28.20;72.30
73277;DHT22;61501;43.316;5.372;2023-07-13T10:08:45;28.20;69.80
73277;DHT22;61501;43.316;5.372;2023-07-13T10:11:41;28.10;72.40
73277;DHT22;61501;43.316;5.372;2023-07-13T10:16:38;28.20;68.10
73277;DHT22;61501;43.316;5.372;2023-07-13T10:19:15;28.40;67.90
73277;DHT22;61501;43.316;5.372;2023-07-13T10:21:57;28.30;66.30
73277;DHT22;61501;43.316;5.372;2023-07-13T10:24:31;28.40;63.10
73277;DHT22;61501;43.316;5.372;2023-07-13T10:27:13;28.40;62.80
73277;DHT22;61501;43.316;5.372;2023-07-13T10:29:59;28.40;64.00
73277;DHT22;61501;43.316;5.372;2023-07-13T10:32:26;28.40;65.10
73277;DHT22;61501;43.316;5.372;2023-07-13T10:34:52;28.50;64.10
73277;DHT22;61501;43.316;5.372;2023-07-13T10:37:26;28.60;61.60
73277;DHT22;61501;43.316;5.372;2023-07-13T10:39:54;28.50;59.10
73277;DHT22;61501;43.316;5.372;2023-07-13T10:42:41;28.40;61.30
73277;DHT22;61501;43.316;5.372;2023-07-13T10:45:14;28.30;62.80
73277;DHT22;61501;43.316;5.372;2023-07-13T10:47:40;28.40;61.30
73277;DHT22;61501;43.316;5.372;2023-07-13T10:50:13;28.60;59.70
73277;DHT22;61501;43.316;5.372;2023-07-13T10:52:48;28.70;59.80
73277;DHT22;61501;43.316;5.372;2023-07-13T10:55:55;28.80;57.30
73277;DHT22;61501;43.316;5.372;2023-07-13T10:58:41;28.80;56.80
73277;DHT22;61501;43.316;5.372;2023-07-13T11:01:10;28.80;55.50
73277;DHT22;61501;43.316;5.372;2023-07-13T11:04:00;28.90;57.20
73277;DHT22;61501;43.316;5.372;2023-07-13T11:08:58;28.80;56.40
73277;DHT22;61501;43.316;5.372;2023-07-13T11:13:57;29.00;54.10
73277;DHT22;61501;43.316;5.372;2023-07-13T11:21:28;29.10;54.70
73277;DHT22;61501;43.316;5.372;2023-07-13T11:24:16;29.00;53.20
73277;DHT22;61501;43.316;5.372;2023-07-13T11:32:00;29.40;45.90
73277;DHT22;61501;43.316;5.372;2023-07-13T11:34:38;29.20;46.30
73277;DHT22;61501;43.316;5.372;2023-07-13T11:37:11;29.40;47.60
73277;DHT22;61501;43.316;5.372;2023-07-13T11:39:41;29.40;50.30
73277;DHT22;61501;43.316;5.372;2023-07-13T11:42:18;29.30;49.00
73277;DHT22;61501;43.316;5.372;2023-07-13T11:44:48;29.30;47.10
73277;DHT22;61501;43.316;5.372;2023-07-13T11:47:19;29.30;46.90
73277;DHT22;61501;43.316;5.372;2023-07-13T11:49:55;29.20;44.70
73277;DHT22;61501;43.316;5.372;2023-07-13T11:52:33;29.30;45.70
73277;DHT22;61501;43.316;5.372;2023-07-13T11:55:01;29.40;45.10
73277;DHT22;61501;43.316;5.372;2023-07-13T12:00:11;29.40;44.00
73277;DHT22;61501;43.316;5.372;2023-07-13T12:02:40;29.50;44.30
73277;DHT22;61501;43.316;5.372;2023-07-13T12:05:14;29.60;43.80
73277;DHT22;61501;43.316;5.372;2023-07-13T12:07:41;29.80;44.30
73277;DHT22;61501;43.316;5.372;2023-07-13T12:13:00;30.20;41.60
73277;DHT22;61501;43.316;5.372;2023-07-13T12:15:40;30.30;40.50
73277;DHT22;61501;43.316;5.372;2023-07-13T12:18:22;30.50;38.60
73277;DHT22;61501;43.316;5.372;2023-07-13T12:20:50;31.30;39.20
73277;DHT22;61501;43.316;5.372;2023-07-13T12:23:36;31.80;38.40
73277;DHT22;61501;43.316;5.372;2023-07-13T12:26:03;31.50;38.80
73277;DHT22;61501;43.316;5.372;2023-07-13T12:28:38;31.60;38.60
73277;DHT22;61501;43.316;5.372;2023-07-13T12:31:07;31.90;36.30
73277;DHT22;61501;43.316;5.372;2023-07-13T12:33:40;31.50;37.20
73277;DHT22;61501;43.316;5.372;2023-07-13T12:36:08;31.60;38.90
73277;DHT22;61501;43.316;5.372;2023-07-13T12:38:36;32.30;38.00
73277;DHT22;61501;43.316;5.372;2023-07-13T12:41:02;32.30;37.20
73277;DHT22;61501;43.316;5.372;2023-07-13T12:43:33;32.10;36.70
73277;DHT22;61501;43.316;5.372;2023-07-13T12:46:05;32.20;37.60
73277;DHT22;61501;43.316;5.372;2023-07-13T12:48:42;32.20;35.70
73277;DHT22;61501;43.316;5.372;2023-07-13T12:51:12;32.20;36.80
73277;DHT22;61501;43.316;5.372;2023-07-13T12:53:47;32.60;34.60
73277;DHT22;61501;43.316;5.372;2023-07-13T12:56:19;32.30;35.40
73277;DHT22;61501;43.316;5.372;2023-07-13T12:58:47;32.60;36.20
73277;DHT22;61501;43.316;5.372;2023-07-13T13:01:17;32.50;35.70
73277;DHT22;61501;43.316;5.372;2023-07-13T13:03:48;31.90;38.00
73277;DHT22;61501;43.316;5.372;2023-07-13T13:08:45;31.80;37.20
73277;DHT22;61501;43.316;5.372;2023-07-13T13:11:12;32.20;36.80
73277;DHT22;61501;43.316;5.372;2023-07-13T13:13:42;32.00;36.60
73277;DHT22;61501;43.316;5.372;2023-07-13T13:19:20;31.90;37.00
73277;DHT22;61501;43.316;5.372;2023-07-13T13:21:47;31.70;39.30
73277;DHT22;61501;43.316;5.372;2023-07-13T13:24:17;31.90;37.60
73277;DHT22;61501;43.316;5.372;2023-07-13T13:26:45;32.20;36.90
73277;DHT22;61501;43.316;5.372;2023-07-13T13:29:16;32.30;37.00
73277;DHT22;61501;43.316;5.372;2023-07-13T13:31:43;32.00;37.60
73277;DHT22;61501;43.316;5.372;2023-07-13T13:34:14;32.30;36.90
73277;DHT22;61501;43.316;5.372;2023-07-13T13:36:40;32.60;36.50
73277;DHT22;61501;43.316;5.372;2023-07-13T13:39:20;32.40;37.00
73277;DHT22;61501;43.316;5.372;2023-07-13T13:41:47;32.00;38.70
73277;DHT22;61501;43.316;5.372;2023-07-13T13:44:15;31.70;38.40
73277;DHT22;61501;43.316;5.372;2023-07-13T13:46:41;32.00;38.10
73277;DHT22;61501;43.316;5.372;2023-07-13T13:49:23;32.30;36.90
73277;DHT22;61501;43.316;5.372;2023-07-13T13:51:49;32.50;35.80
73277;DHT22;61501;43.316;5.372;2023-07-13T13:54:16;32.00;38.60
73277;DHT22;61501;43.316;5.372;2023-07-13T13:56:44;32.30;38.10
73277;DHT22;61501;43.316;5.372;2023-07-13T13:59:10;32.50;37.60
73277;DHT22;61501;43.316;5.372;2023-07-13T14:01:36;33.00;37.40
73277;DHT22;61501;43.316;5.372;2023-07-13T14:04:03;32.80;38.10
73277;DHT22;61501;43.316;5.372;2023-07-13T14:06:29;32.50;39.20
73277;DHT22;61501;43.316;5.372;2023-07-13T14:08:55;32.20;38.10
73277;DHT22;61501;43.316;5.372;2023-07-13T14:11:21;32.50;38.50
73277;DHT22;61501;43.316;5.372;2023-07-13T14:13:54;32.20;38.50
73277;DHT22;61501;43.316;5.372;2023-07-13T14:16:22;32.60;37.00
73277;DHT22;61501;43.316;5.372;2023-07-13T14:18:48;32.50;37.60
73277;DHT22;61501;43.316;5.372;2023-07-13T14:21:20;32.80;37.20
73277;DHT22;61501;43.316;5.372;2023-07-13T14:23:47;33.40;37.30
73277;DHT22;61501;43.316;5.372;2023-07-13T14:26:15;32.70;35.70
73277;DHT22;61501;43.316;5.372;2023-07-13T14:28:43;32.30;35.80
73277;DHT22;61501;43.316;5.372;2023-07-13T14:31:11;32.50;37.00
73277;DHT22;61501;43.316;5.372;2023-07-13T14:33:37;32.50;36.90
73277;DHT22;61501;43.316;5.372;2023-07-13T14:36:17;32.30;37.90
73277;DHT22;61501;43.316;5.372;2023-07-13T14:38:46;32.50;38.40
73277;DHT22;61501;43.316;5.372;2023-07-13T14:41:11;33.00;37.00
73277;DHT22;61501;43.316;5.372;2023-07-13T14:43:37;32.80;38.00
73277;DHT22;61501;43.316;5.372;2023-07-13T14:46:02;32.30;36.80
73277;DHT22;61501;43.316;5.372;2023-07-13T14:48:29;32.20;38.10
73277;DHT22;61501;43.316;5.372;2023-07-13T14:50:57;32.50;38.00
73277;DHT22;61501;43.316;5.372;2023-07-13T14:53:25;32.80;38.80
73277;DHT22;61501;43.316;5.372;2023-07-13T14:55:53;32.70;38.10
73277;DHT22;61501;43.316;5.372;2023-07-13T14:58:19;32.70;38.50
73277;DHT22;61501;43.316;5.372;2023-07-13T15:00:44;33.00;38.50
73277;DHT22;61501;43.316;5.372;2023-07-13T15:03:21;33.30;37.40
73277;DHT22;61501;43.316;5.372;2023-07-13T15:05:48;33.40;36.60
73277;DHT22;61501;43.316;5.372;2023-07-13T15:08:15;33.20;37.60
73277;DHT22;61501;43.316;5.372;2023-07-13T15:10:41;32.80;40.20
73277;DHT22;61501;43.316;5.372;2023-07-13T15:15:40;32.90;40.00
73277;DHT22;61501;43.316;5.372;2023-07-13T15:18:11;32.90;39.10
73277;DHT22;61501;43.316;5.372;2023-07-13T15:20:37;33.00;39.20
73277;DHT22;61501;43.316;5.372;2023-07-13T15:23:04;32.70;39.80
73277;DHT22;61501;43.316;5.372;2023-07-13T15:25:32;32.40;40.60
73277;DHT22;61501;43.316;5.372;2023-07-13T15:27:59;32.40;41.60
73277;DHT22;61501;43.316;5.372;2023-07-13T15:30:30;32.50;40.70
73277;DHT22;61501;43.316;5.372;2023-07-13T15:33:05;32.50;41.60
73277;DHT22;61501;43.316;5.372;2023-07-13T15:35:35;32.60;41.70
73277;DHT22;61501;43.316;5.372;2023-07-13T15:38:01;32.80;39.80
73277;DHT22;61501;43.316;5.372;2023-07-13T15:40:28;32.90;40.60
73277;DHT22;61501;43.316;5.372;2023-07-13T15:42:54;33.00;39.40
73277;DHT22;61501;43.316;5.372;2023-07-13T15:45:22;32.70;40.30
73277;DHT22;61501;43.316;5.372;2023-07-13T15:47:50;32.40;40.70
73277;DHT22;61501;43.316;5.372;2023-07-13T15:50:19;32.50;41.10
73277;DHT22;61501;43.316;5.372;2023-07-13T15:52:48;32.60;41.30
73277;DHT22;61501;43.316;5.372;2023-07-13T15:55:14;32.30;42.50
73277;DHT22;61501;43.316;5.372;2023-07-13T15:57:47;32.00;41.20
73277;DHT22;61501;43.316;5.372;2023-07-13T16:00:33;32.60;42.00
73277;DHT22;61501;43.316;5.372;2023-07-13T16:02:59;33.30;41.50
73277;DHT22;61501;43.316;5.372;2023-07-13T16:05:24;33.30;40.70
73277;DHT22;61501;43.316;5.372;2023-07-13T16:07:51;32.60;42.20
73277;DHT22;61501;43.316;5.372;2023-07-13T16:10:27;32.30;42.80
73277;DHT22;61501;43.316;5.372;2023-07-13T16:12:55;31.90;43.10
73277;DHT22;61501;43.316;5.372;2023-07-13T16:15:22;31.90;44.20
73277;DHT22;61501;43.316;5.372;2023-07-13T16:17:48;31.60;42.50
73277;DHT22;61501;43.316;5.372;2023-07-13T16:20:15;31.50;42.80
73277;DHT22;61501;43.316;5.372;2023-07-13T16:22:44;31.60;41.20
73277;DHT22;61501;43.316;5.372;2023-07-13T16:25:22;32.20;40.30
73277;DHT22;61501;43.316;5.372;2023-07-13T16:27:49;32.50;39.80
73277;DHT22;61501;43.316;5.372;2023-07-13T16:30:18;32.20;40.10
73277;DHT22;61501;43.316;5.372;2023-07-13T16:32:47;32.00;40.80
73277;DHT22;61501;43.316;5.372;2023-07-13T16:35:14;32.20;40.60
73277;DHT22;61501;43.316;5.372;2023-07-13T16:37:40;32.60;39.70
73277;DHT22;61501;43.316;5.372;2023-07-13T16:40:36;33.20;38.60
73277;DHT22;61501;43.316;5.372;2023-07-13T16:43:01;32.90;38.80
73277;DHT22;61501;43.316;5.372;2023-07-13T16:45:32;32.40;40.10
73277;DHT22;61501;43.316;5.372;2023-07-13T16:48:10;32.60;39.60
73277;DHT22;61501;43.316;5.372;2023-07-13T16:50:38;32.50;40.10
73277;DHT22;61501;43.316;5.372;2023-07-13T16:53:20;32.60;37.80
73277;DHT22;61501;43.316;5.372;2023-07-13T16:55:47;32.50;37.80
73277;DHT22;61501;43.316;5.372;2023-07-13T16:58:13;32.40;38.00
73277;DHT22;61501;43.316;5.372;2023-07-13T17:00:39;32.70;37.70
73277;DHT22;61501;43.316;5.372;2023-07-13T17:03:05;32.80;37.80
73277;DHT22;61501;43.316;5.372;2023-07-13T17:05:44;32.90;38.10
73277;DHT22;61501;43.316;5.372;2023-07-13T17:08:15;32.50;37.40
73277;DHT22;61501;43.316;5.372;2023-07-13T17:10:47;32.40;38.30
73277;DHT22;61501;43.316;5.372;2023-07-13T17:13:15;32.30;38.50
73277;DHT22;61501;43.316;5.372;2023-07-13T17:15:43;32.40;38.30
73277;DHT22;61501;43.316;5.372;2023-07-13T17:18:11;32.60;38.00
73277;DHT22;61501;43.316;5.372;2023-07-13T17:20:41;32.20;38.70